Time;durP1;ratioP1;P1;durP2;ratioP2;P2;SDS_P1;SDS_P2;PMS_P1;PMS_P2;Temp;Humidity;BMP_temperature;BMP_pressure;BME280_temperature;BME280_humidity;BME280_pressure;Samples;Min_cycle;Max_cycle;Signal;HPM_P1;HPM_P2
2022/01/31 00:00:49;;;;;;;68.45;9.52;;;;;;;4.54;96.09;101285.47;5051887;28;20092;-49
2022/01/31 00:03:15;;;;;;;75.95;9.23;;;;;;;4.56;96.66;101275.53;5060337;28;20028;-47
2022/01/31 00:05:40;;;;;;;62.03;10.68;;;;;;;4.55;96.99;101264.97;5071860;28;20413;-49
2022/01/31 00:08:05;;;;;;;63.95;10.55;;;;;;;4.51;97.46;101259.09;5071862;28;20028;-46
2022/01/31 00:10:31;;;;;;;58.03;10.25;;;;;;;4.52;98.16;101246.59;5071724;28;20032;-47
2022/01/31 00:13:06;;;;;;;82.18;13.00;;;;;;;4.47;98.72;101254.97;5037233;28;20056;-45
2022/01/31 00:15:36;;;;;;;55.08;12.25;;;;;;;4.45;99.21;101254.28;5071997;28;20098;-47
2022/01/31 00:18:01;;;;;;;76.85;13.18;;;;;;;4.44;99.28;101241.94;5071623;28;20496;-44
2022/01/31 00:20:27;;;;;;;71.13;14.23;;;;;;;4.40;100.00;101240.53;5070930;28;20132;-45
2022/01/31 00:22:52;;;;;;;75.57;14.90;;;;;;;4.41;100.00;101231.53;5053537;28;20035;-45
2022/01/31 00:25:18;;;;;;;73.10;14.40;;;;;;;4.42;100.00;101217.22;5071360;28;20032;-47
2022/01/31 00:27:43;;;;;;;51.50;14.32;;;;;;;4.43;100.00;101197.59;5054380;28;20032;-46
2022/01/31 00:30:09;;;;;;;66.05;13.02;;;;;;;4.45;100.00;101185.00;5075148;28;20032;-45
2022/01/31 00:32:35;;;;;;;69.95;13.43;;;;;;;4.47;100.00;101180.34;5056641;28;20131;-44
2022/01/31 00:35:01;;;;;;;63.70;12.77;;;;;;;4.50;100.00;101158.78;5074824;28;20475;-46
2022/01/31 00:37:26;;;;;;;78.55;13.90;;;;;;;4.52;100.00;101143.47;5074770;28;20114;-45
2022/01/31 00:39:51;;;;;;;73.45;13.68;;;;;;;4.52;100.00;101132.81;5074897;28;20365;-45
2022/01/31 00:42:19;;;;;;;59.95;10.82;;;;;;;4.55;100.00;101132.53;5074535;28;20036;-48
2022/01/31 00:44:51;;;;;;;57.75;11.30;;;;;;;4.59;100.00;101125.97;5074759;28;20422;-48
2022/01/31 00:47:23;;;;;;;56.80;10.63;;;;;;;4.59;100.00;101122.47;5074270;28;20055;-45
2022/01/31 00:50:03;;;;;;;61.30;11.65;;;;;;;4.59;100.00;101111.81;5074758;28;20060;-46
2022/01/31 00:52:29;;;;;;;62.30;12.07;;;;;;;4.61;100.00;101105.38;5074471;28;20028;-45
2022/01/31 00:54:54;;;;;;;54.33;10.98;;;;;;;4.65;100.00;101100.59;5074694;28;20036;-45
2022/01/31 00:57:19;;;;;;;66.65;12.40;;;;;;;4.65;100.00;101078.44;5074541;28;20038;-45
2022/01/31 00:59:44;;;;;;;51.40;10.68;;;;;;;4.66;100.00;101066.78;5056564;28;20032;-45
2022/01/31 01:02:10;;;;;;;51.40;10.25;;;;;;;4.67;100.00;101071.13;5073737;28;20029;-44
2022/01/31 01:04:35;;;;;;;41.83;9.63;;;;;;;4.68;100.00;101060.31;5074501;28;20048;-46
2022/01/31 01:07:01;;;;;;;53.03;10.70;;;;;;;4.73;100.00;101051.91;5074425;28;20063;-45
2022/01/31 01:09:26;;;;;;;54.08;9.75;;;;;;;4.77;100.00;101037.34;5074587;28;20055;-47
2022/01/31 01:11:51;;;;;;;58.83;11.13;;;;;;;4.82;100.00;101033.25;5074160;28;20029;-46
2022/01/31 01:14:17;;;;;;;45.00;9.80;;;;;;;4.89;100.00;101022.88;5073793;28;20040;-47
2022/01/31 01:16:42;;;;;;;54.95;11.18;;;;;;;4.96;100.00;101007.16;5073590;28;20029;-48
2022/01/31 01:19:07;;;;;;;57.85;10.40;;;;;;;5.01;100.00;101016.41;5074052;28;20429;-47
2022/01/31 01:21:33;;;;;;;67.43;11.23;;;;;;;5.13;100.00;101008.25;5074277;28;20440;-45
2022/01/31 01:23:58;;;;;;;72.40;9.85;;;;;;;5.21;100.00;101001.22;5073791;28;20111;-45
2022/01/31 01:26:23;;;;;;;71.47;8.95;;;;;;;5.31;100.00;101005.69;5074069;28;20039;-44
2022/01/31 01:28:50;;;;;;;73.90;8.55;;;;;;;5.39;100.00;100995.97;5073494;28;20476;-43
2022/01/31 01:31:15;;;;;;;68.53;8.20;;;;;;;5.47;100.00;101005.94;5056021;28;20024;-43
2022/01/31 01:33:41;;;;;;;83.82;8.38;;;;;;;5.53;100.00;100985.81;5073773;28;20376;-41
2022/01/31 01:36:07;;;;;;;77.13;8.95;;;;;;;5.63;100.00;100973.28;5056165;28;20028;-42
2022/01/31 01:38:33;;;;;;;78.28;7.70;;;;;;;5.68;100.00;100977.19;5055669;28;20040;-41
2022/01/31 01:41:00;;;;;;;98.93;11.18;;;;;;;5.71;100.00;100976.06;5074004;28;20056;-41
2022/01/31 01:43:27;;;;;;;63.53;7.40;;;;;;;5.78;100.00;100984.34;5055479;28;20070;-41
2022/01/31 01:45:54;;;;;;;52.60;6.57;;;;;;;5.81;100.00;100974.19;5073177;28;20033;-41
2022/01/31 01:48:20;;;;;;;50.47;6.43;;;;;;;5.84;100.00;100965.88;5073492;28;20071;-42
2022/01/31 01:50:45;;;;;;;63.08;7.05;;;;;;;5.89;100.00;100942.22;5073515;28;20020;-41
2022/01/31 01:53:14;;;;;;;39.80;5.68;;;;;;;5.92;99.93;100947.31;5073272;28;20429;-40
2022/01/31 01:55:39;;;;;;;47.13;5.47;;;;;;;5.98;98.70;100945.03;5073246;28;20376;-41
2022/01/31 01:58:13;;;;;;;54.67;5.97;;;;;;;6.04;98.05;100947.97;5073090;28;20034;-40
2022/01/31 02:00:53;;;;;;;47.10;6.63;;;;;;;6.08;97.07;100932.44;5055289;28;20036;-41
2022/01/31 02:03:20;;;;;;;44.85;5.72;;;;;;;6.08;96.76;100940.47;5055007;28;20062;-40
2022/01/31 02:05:46;;;;;;;35.63;4.65;;;;;;;6.05;96.82;100940.78;5072737;28;20477;-40
2022/01/31 02:08:13;;;;;;;55.03;6.68;;;;;;;6.05;97.14;100930.91;5071841;28;20032;-40
2022/01/31 02:10:38;;;;;;;45.47;5.35;;;;;;;6.02;96.83;100919.72;5073283;28;20511;-40
2022/01/31 02:13:05;;;;;;;43.65;5.35;;;;;;;6.02;96.13;100919.72;5072686;28;20036;-40
2022/01/31 02:15:30;;;;;;;60.40;5.90;;;;;;;6.02;96.10;100917.03;5072378;28;20043;-41
2022/01/31 02:17:56;;;;;;;45.83;5.95;;;;;;;6.01;95.89;100918.03;5072780;28;20036;-41
2022/01/31 02:20:21;;;;;;;49.90;7.53;;;;;;;6.01;95.82;100918.03;5073139;28;20518;-43
2022/01/31 02:22:47;;;;;;;37.20;4.30;;;;;;;6.02;95.45;100914.34;5072168;28;20036;-40
2022/01/31 02:25:13;;;;;;;39.20;4.75;;;;;;;6.04;94.61;100915.06;5072978;28;20391;-40
2022/01/31 02:27:39;;;;;;;21.83;3.60;;;;;;;6.05;94.09;100928.25;5073221;28;20044;-41
2022/01/31 02:30:10;;;;;;;27.27;4.00;;;;;;;6.07;92.96;100917.44;5054950;28;20036;-40
2022/01/31 02:32:35;;;;;;;41.45;4.78;;;;;;;6.06;93.16;100902.41;5054672;28;20045;-40
2022/01/31 02:35:01;;;;;;;45.80;4.43;;;;;;;6.07;92.70;100906.75;5072754;28;20471;-41
2022/01/31 02:37:26;;;;;;;32.97;4.43;;;;;;;6.08;91.49;100887.03;5072401;28;20032;-41
2022/01/31 02:39:51;;;;;;;33.95;4.25;;;;;;;6.06;91.50;100889.03;5072886;28;20028;-40
2022/01/31 02:42:17;;;;;;;34.67;4.30;;;;;;;6.06;90.51;100878.34;5072571;28;20502;-41
2022/01/31 02:44:43;;;;;;;44.35;4.05;;;;;;;6.03;90.89;100891.97;5072312;28;20111;-41
2022/01/31 02:47:17;;;;;;;45.50;3.63;;;;;;;6.01;89.90;100885.97;5072606;28;20073;-41
2022/01/31 02:49:50;;;;;;;25.63;3.80;;;;;;;5.99;90.01;100883.44;5072288;28;20059;-41
2022/01/31 02:52:17;;;;;;;32.22;3.38;;;;;;;5.99;89.91;100887.94;5071698;28;20508;-41
2022/01/31 02:54:43;;;;;;;23.65;3.00;;;;;;;6.00;89.05;100884.28;5072507;28;20033;-41
2022/01/31 02:57:08;;;;;;;22.83;3.88;;;;;;;5.96;89.27;100881.09;5072287;28;20029;-41
2022/01/31 02:59:33;;;;;;;36.70;3.47;;;;;;;5.94;89.28;100856.34;5071674;28;20033;-40
2022/01/31 03:01:59;;;;;;;34.13;3.88;;;;;;;5.89;88.63;100878.13;5071557;28;20213;-41
2022/01/31 03:04:24;;;;;;;37.03;4.53;;;;;;;5.90;88.35;100874.47;5072278;28;20048;-41
2022/01/31 03:06:50;;;;;;;30.80;4.03;;;;;;;5.88;88.42;100876.47;5072341;28;20020;-41
2022/01/31 03:09:16;;;;;;;24.02;3.10;;;;;;;5.87;87.84;100868.56;5072421;28;20032;-40
2022/01/31 03:11:41;;;;;;;23.42;3.20;;;;;;;5.84;88.21;100867.06;5072023;28;20036;-41
2022/01/31 03:14:07;;;;;;;28.63;4.60;;;;;;;5.83;88.14;100870.72;5054316;28;20044;-42
2022/01/31 03:16:34;;;;;;;37.92;3.35;;;;;;;5.84;88.20;100861.72;5072225;28;20097;-41
2022/01/31 03:18:59;;;;;;;28.85;3.60;;;;;;;5.86;86.89;100856.22;5072225;28;20036;-41
2022/01/31 03:21:25;;;;;;;29.90;3.65;;;;;;;5.88;86.29;100864.94;5072096;28;20036;-41
2022/01/31 03:23:50;;;;;;;38.80;4.15;;;;;;;5.86;86.71;100862.41;5072331;28;20028;-41
2022/01/31 03:26:16;;;;;;;26.33;2.83;;;;;;;5.85;85.99;100855.41;5072518;28;20025;-41
2022/01/31 03:28:42;;;;;;;36.63;4.72;;;;;;;5.91;85.67;100844.09;5072984;28;20395;-41
2022/01/31 03:31:07;;;;;;;35.70;3.25;;;;;;;5.90;85.37;100839.75;5072251;28;20025;-41
2022/01/31 03:33:33;;;;;;;35.65;3.67;;;;;;;5.93;85.00;100839.47;5071995;28;20089;-41
2022/01/31 03:35:59;;;;;;;25.85;3.25;;;;;;;5.94;84.62;100837.63;5071743;28;20835;-42
2022/01/31 03:38:24;;;;;;;37.25;4.18;;;;;;;5.91;83.46;100830.75;5053879;28;20111;-41
2022/01/31 03:40:50;;;;;;;30.23;3.33;;;;;;;5.87;83.60;100826.72;5071825;28;20021;-41
2022/01/31 03:43:15;;;;;;;54.65;4.25;;;;;;;5.86;83.36;100825.00;5072234;28;20108;-40
2022/01/31 03:45:40;;;;;;;39.92;4.45;;;;;;;5.94;82.57;100824.28;5071982;28;20036;-40
2022/01/31 03:48:06;;;;;;;40.53;3.03;;;;;;;5.93;81.62;100831.47;5071412;28;20116;-40
2022/01/31 03:50:32;;;;;;;30.67;3.42;;;;;;;5.90;82.66;100838.91;5071881;28;20028;-40
2022/01/31 03:52:57;;;;;;;39.13;3.90;;;;;;;5.84;83.23;100816.31;5072117;28;20376;-40
2022/01/31 03:55:22;;;;;;;31.15;4.25;;;;;;;5.91;81.06;100821.88;5053515;28;20024;-40
2022/01/31 03:57:49;;;;;;;39.08;4.13;;;;;;;5.97;81.41;100825.81;5071881;28;20433;-40
2022/01/31 04:00:15;;;;;;;26.35;3.63;;;;;;;5.98;80.96;100816.78;5071759;28;20035;-41
2022/01/31 04:02:41;;;;;;;42.83;4.38;;;;;;;5.98;81.27;100811.44;5072423;28;20032;-40
2022/01/31 04:05:07;;;;;;;31.63;4.00;;;;;;;6.03;80.12;100815.38;5075751;28;20391;-41
2022/01/31 04:07:32;;;;;;;28.40;3.63;;;;;;;6.05;80.52;100807.19;5074579;28;20082;-41
2022/01/31 04:09:58;;;;;;;29.48;4.10;;;;;;;6.08;79.84;100809.53;5075764;28;20064;-41
2022/01/31 04:12:23;;;;;;;32.10;4.05;;;;;;;6.09;79.45;100808.56;5074971;28;20529;-41
2022/01/31 04:14:49;;;;;;;32.75;3.85;;;;;;;6.13;79.36;100793.88;5075650;28;20036;-42
2022/01/31 04:17:18;;;;;;;26.33;3.88;;;;;;;6.20;78.58;100800.31;5075346;28;20489;-41
2022/01/31 04:19:44;;;;;;;37.20;2.95;;;;;;;6.20;78.96;100794.97;5075351;28;20028;-41
2022/01/31 04:22:12;;;;;;;31.20;3.88;;;;;;;6.22;78.19;100787.63;5074332;28;20021;-41
2022/01/31 04:24:40;;;;;;;32.08;3.45;;;;;;;6.21;77.67;100788.63;5074568;28;20080;-41
2022/01/31 04:27:06;;;;;;;24.90;3.08;;;;;;;6.24;78.17;100791.00;5074808;28;20157;-41
2022/01/31 04:29:35;;;;;;;27.20;3.05;;;;;;;6.24;77.74;100791.00;5075129;28;20156;-40
2022/01/31 04:32:00;;;;;;;35.85;3.33;;;;;;;6.28;77.54;100776.31;5057550;28;20017;-40
2022/01/31 04:34:26;;;;;;;28.88;3.30;;;;;;;6.34;76.13;100781.03;5074660;28;20393;-40
2022/01/31 04:36:51;;;;;;;28.85;3.63;;;;;;;6.40;75.52;100779.59;5074660;28;20030;-40
2022/01/31 04:39:18;;;;;;;32.13;3.72;;;;;;;6.43;75.02;100752.53;5074433;28;20144;-40
2022/01/31 04:41:48;;;;;;;35.00;3.47;;;;;;;6.40;75.78;100792.09;5075234;28;20052;-40
2022/01/31 04:44:14;;;;;;;29.70;3.45;;;;;;;6.44;76.24;100772.91;5074251;28;20086;-40
2022/01/31 04:46:40;;;;;;;35.28;2.97;;;;;;;6.36;76.70;100773.69;5074708;28;20028;-41
2022/01/31 04:49:06;;;;;;;36.03;2.85;;;;;;;6.24;79.25;100790.13;5074975;28;20035;-40
2022/01/31 04:51:31;;;;;;;31.02;3.58;;;;;;;6.19;79.36;100795.09;5074715;28;20020;-40
2022/01/31 04:53:57;;;;;;;49.05;3.92;;;;;;;6.12;79.01;100789.56;5056686;28;20380;-40
2022/01/31 04:56:22;;;;;;;35.58;2.80;;;;;;;6.08;80.22;100797.06;5074449;28;20036;-40
2022/01/31 04:58:47;;;;;;;39.95;3.65;;;;;;;6.04;81.56;100818.88;5074500;28;20028;-40
2022/01/31 05:01:13;;;;;;;44.42;3.55;;;;;;;5.96;81.53;100794.75;5055815;28;20111;-40
2022/01/31 05:03:38;;;;;;;36.78;4.47;;;;;;;5.97;81.29;100804.44;5074361;28;20045;-40
2022/01/31 05:06:04;;;;;;;32.50;4.63;;;;;;;5.97;80.86;100799.09;5056221;28;20063;-41
2022/01/31 05:08:29;;;;;;;47.38;4.25;;;;;;;5.97;79.77;100791.09;5074652;28;20026;-40
2022/01/31 05:10:55;;;;;;;32.97;3.85;;;;;;;6.05;78.09;100792.00;5073678;28;20108;-41
2022/01/31 05:13:21;;;;;;;39.92;4.75;;;;;;;6.15;77.42;100802.59;5074172;28;20094;-40
2022/01/31 05:15:47;;;;;;;41.25;3.75;;;;;;;6.21;77.66;100799.31;5074354;28;20037;-40
2022/01/31 05:18:13;;;;;;;32.50;2.90;;;;;;;6.26;76.88;100780.13;5055978;28;20032;-40
2022/01/31 05:20:38;;;;;;;45.08;3.85;;;;;;;6.21;77.11;100790.44;5072499;28;20396;-40
2022/01/31 05:23:05;;;;;;;37.00;3.38;;;;;;;6.15;76.58;100781.22;5073809;28;20032;-40
2022/01/31 05:25:30;;;;;;;41.63;4.55;;;;;;;6.12;77.30;100793.06;5055609;28;20465;-41
2022/01/31 05:27:55;;;;;;;42.00;3.75;;;;;;;6.17;76.17;100795.28;5073586;28;20071;-40
2022/01/31 05:30:22;;;;;;;32.90;3.75;;;;;;;6.19;76.15;100798.63;5073865;28;20037;-40
2022/01/31 05:32:48;;;;;;;41.30;4.10;;;;;;;6.21;76.74;100783.25;5073839;28;20028;-40
2022/01/31 05:35:13;;;;;;;43.22;4.43;;;;;;;6.23;75.70;100783.13;5068909;28;20534;-41
2022/01/31 05:37:40;;;;;;;49.10;3.97;;;;;;;6.24;76.05;100764.28;5073209;28;20036;-41
2022/01/31 05:40:07;;;;;;;44.40;3.95;;;;;;;6.23;75.88;100794.66;5073305;28;20507;-40
2022/01/31 05:42:32;;;;;;;49.03;5.10;;;;;;;6.23;76.90;100788.47;5073045;28;20029;-41
2022/01/31 05:44:57;;;;;;;50.63;4.63;;;;;;;6.20;77.26;100784.28;5072575;28;20036;-40
2022/01/31 05:47:23;;;;;;;49.08;4.22;;;;;;;6.13;77.16;100770.72;5072676;28;20039;-40
2022/01/31 05:49:48;;;;;;;44.97;5.32;;;;;;;6.15;78.45;100779.38;5054775;28;20499;-41
2022/01/31 05:52:14;;;;;;;52.17;5.40;;;;;;;6.09;78.47;100776.50;5070490;28;20081;-40
2022/01/31 05:54:40;;;;;;;52.90;4.72;;;;;;;6.08;77.91;100764.13;5054685;28;20464;-40
2022/01/31 05:57:06;;;;;;;58.80;6.03;;;;;;;6.05;78.81;100785.81;5072772;28;20369;-41
2022/01/31 05:59:32;;;;;;;48.50;5.63;;;;;;;6.08;78.11;100750.75;5054238;28;20028;-41
2022/01/31 06:01:58;;;;;;;53.03;5.05;;;;;;;6.09;77.32;100771.16;5073228;28;20027;-40
2022/01/31 06:04:24;;;;;;;48.58;5.22;;;;;;;6.12;76.85;100781.53;5073425;28;20045;-41
2022/01/31 06:06:49;;;;;;;46.03;4.78;;;;;;;6.15;75.84;100775.88;5074397;28;20400;-42
2022/01/31 06:09:14;;;;;;;45.08;3.85;;;;;;;6.22;75.64;100760.91;5074323;28;20032;-41
2022/01/31 06:11:40;;;;;;;44.75;5.03;;;;;;;6.26;74.19;100780.97;5072822;28;20038;-41
2022/01/31 06:14:09;;;;;;;30.65;4.20;;;;;;;6.24;75.02;100785.66;5073099;28;20060;-41
2022/01/31 06:16:35;;;;;;;49.45;5.18;;;;;;;6.21;75.16;100764.56;5054986;28;20444;-41
2022/01/31 06:19:00;;;;;;;52.83;5.35;;;;;;;6.27;75.02;100782.66;5053955;28;20048;-41
2022/01/31 06:21:26;;;;;;;44.00;4.30;;;;;;;6.26;75.37;100778.28;5072117;28;20032;-41
2022/01/31 06:23:52;;;;;;;41.38;4.95;;;;;;;6.29;75.28;100783.34;5072699;28;20052;-41
2022/01/31 06:26:17;;;;;;;49.58;5.95;;;;;;;6.32;74.86;100768.84;5052967;28;20032;-42
2022/01/31 06:28:43;;;;;;;40.17;4.50;;;;;;;6.30;74.94;100782.34;5072100;28;20086;-41
2022/01/31 06:31:09;;;;;;;41.28;4.63;;;;;;;6.25;76.41;100792.66;5071616;28;20116;-41
2022/01/31 06:33:35;;;;;;;53.80;4.63;;;;;;;6.25;75.48;100786.50;5071846;28;20052;-41
2022/01/31 06:36:01;;;;;;;41.75;4.75;;;;;;;6.26;75.32;100789.00;5072096;28;20074;-40
2022/01/31 06:38:28;;;;;;;48.67;4.95;;;;;;;6.31;73.86;100788.53;5071964;28;20040;-39
2022/01/31 06:40:53;;;;;;;46.53;4.53;;;;;;;6.40;73.55;100795.63;5072094;28;20024;-40
2022/01/31 06:43:19;;;;;;;76.15;8.05;;;;;;;6.36;75.00;100800.44;5071948;28;20118;-40
2022/01/31 06:45:44;;;;;;;48.45;5.13;;;;;;;6.31;77.27;100796.53;5071729;28;20029;-41
2022/01/31 06:48:09;;;;;;;46.72;4.10;;;;;;;6.25;76.28;100802.53;5032091;28;20052;-41
2022/01/31 06:50:35;;;;;;;52.58;5.85;;;;;;;6.15;78.10;100802.59;5069968;28;21066;-41
2022/01/31 06:53:02;;;;;;;56.67;6.35;;;;;;;6.08;79.06;100798.84;5068956;28;20417;-40
2022/01/31 06:55:29;;;;;;;51.88;4.78;;;;;;;5.99;78.94;100802.47;5069474;28;20028;-41
2022/01/31 06:57:55;;;;;;;53.33;6.00;;;;;;;5.90;78.67;100815.72;5070480;28;20022;-42
2022/01/31 07:00:21;;;;;;;51.67;5.20;;;;;;;5.98;78.60;100809.66;5049486;28;20029;-41
2022/01/31 07:02:47;;;;;;;38.20;4.47;;;;;;;5.98;79.39;100823.00;5069511;28;20369;-41
2022/01/31 07:05:14;;;;;;;46.30;5.10;;;;;;;6.09;78.05;100805.91;5049068;28;20040;-42
2022/01/31 07:07:40;;;;;;;44.67;5.10;;;;;;;6.10;77.66;100836.97;5064669;28;20032;-40
2022/01/31 07:10:06;;;;;;;45.20;4.00;;;;;;;6.08;79.57;100822.91;5069360;28;20103;-41
2022/01/31 07:12:34;;;;;;;70.95;6.13;;;;;;;6.00;79.65;100830.84;5069989;28;20037;-41
2022/01/31 07:15:00;;;;;;;49.65;5.15;;;;;;;6.05;79.32;100833.91;5069833;28;20061;-41
2022/01/31 07:17:25;;;;;;;56.97;4.50;;;;;;;6.10;79.73;100828.94;5050513;28;20051;-41
2022/01/31 07:19:51;;;;;;;57.95;5.88;;;;;;;6.09;78.22;100819.25;5069880;28;20102;-41
2022/01/31 07:22:19;;;;;;;53.05;5.43;;;;;;;6.12;78.54;100821.63;5069187;28;20064;-40
2022/01/31 07:24:51;;;;;;;56.38;5.80;;;;;;;6.12;79.50;100813.59;5052320;28;20034;-40
2022/01/31 07:27:17;;;;;;;55.47;5.70;;;;;;;6.12;79.98;100805.59;5052413;28;20032;-42
2022/01/31 07:29:44;;;;;;;62.83;5.55;;;;;;;6.11;78.05;100802.09;5067922;28;20089;-41
2022/01/31 07:32:10;;;;;;;44.47;6.15;;;;;;;6.20;77.31;100836.88;5065238;28;20115;-41
2022/01/31 07:34:38;;;;;;;56.33;5.07;;;;;;;6.29;75.90;100830.59;5064169;28;20047;-40
2022/01/31 07:37:03;;;;;;;49.08;5.65;;;;;;;6.37;75.13;100831.53;5070259;28;20120;-40
2022/01/31 07:39:29;;;;;;;48.97;5.57;;;;;;;6.43;76.12;100816.69;5072704;28;20115;-42
2022/01/31 07:41:54;;;;;;;60.92;7.70;;;;;;;6.48;75.33;100835.78;5074025;28;20044;-41
2022/01/31 07:44:20;;;;;;;50.88;5.65;;;;;;;6.48;76.74;100848.31;5073109;28;20032;-41
2022/01/31 07:46:46;;;;;;;53.28;5.95;;;;;;;6.53;76.69;100840.66;5069917;28;20044;-41
2022/01/31 07:49:11;;;;;;;65.80;5.35;;;;;;;6.55;75.18;100858.22;5071729;28;20032;-41
2022/01/31 07:51:40;;;;;;;64.63;4.85;;;;;;;6.53;74.91;100859.38;5074638;28;20089;-42
2022/01/31 07:54:06;;;;;;;42.03;5.10;;;;;;;6.56;74.70;100848.38;5074625;28;20365;-40
2022/01/31 07:56:31;;;;;;;50.50;5.10;;;;;;;6.61;75.02;100843.41;5056685;28;20044;-41
2022/01/31 07:58:56;;;;;;;82.15;7.50;;;;;;;6.61;74.61;100827.38;5074319;28;20508;-41
2022/01/31 08:01:22;;;;;;;58.85;5.50;;;;;;;6.62;75.22;100869.16;5074362;28;20483;-42
2022/01/31 08:03:47;;;;;;;55.65;6.90;;;;;;;6.61;75.46;100870.16;5052652;28;20045;-41
2022/01/31 08:06:13;;;;;;;64.15;6.38;;;;;;;6.60;75.95;100865.78;5073485;28;20111;-41
2022/01/31 08:08:41;;;;;;;60.17;5.72;;;;;;;6.62;76.02;100865.63;5073922;28;20037;-41
2022/01/31 08:11:07;;;;;;;58.20;7.35;;;;;;;6.53;77.51;100880.75;5073274;28;20050;-41
2022/01/31 08:13:33;;;;;;;54.10;5.50;;;;;;;6.37;78.75;100887.66;5070416;28;20097;-42
2022/01/31 08:17:27;;;;;;;71.80;6.60;;;;;;;6.12;82.22;100885.75;5053264;28;20411;-41
2022/01/31 08:19:53;;;;;;;65.57;5.82;;;;;;;5.98;83.59;100888.94;5049833;28;20049;-41
2022/01/31 08:22:18;;;;;;;73.05;7.30;;;;;;;5.95;82.74;100903.44;5055240;28;20062;-41
2022/01/31 08:24:44;;;;;;;50.85;6.20;;;;;;;5.96;79.70;100894.44;5064931;28;20025;-41
2022/01/31 08:27:09;;;;;;;56.17;5.68;;;;;;;5.97;79.15;100884.59;5051473;28;20408;-41
2022/01/31 08:29:36;;;;;;;52.53;4.95;;;;;;;6.05;77.80;100908.72;5052602;28;20116;-41
2022/01/31 08:32:06;;;;;;;52.75;4.97;;;;;;;6.09;77.72;100900.25;5049070;28;20101;-42
2022/01/31 08:37:16;;;;;;;61.67;6.45;;;;;;;6.20;78.48;100912.56;5048388;28;20040;-40
2022/01/31 08:39:42;;;;;;;65.95;7.20;;;;;;;6.22;78.72;100921.25;5048346;28;20033;-41
2022/01/31 08:42:07;;;;;;;58.38;6.10;;;;;;;6.24;78.74;100908.59;5047734;28;20029;-41
2022/01/31 08:44:32;;;;;;;47.92;6.53;;;;;;;6.28;77.04;100931.34;5046900;28;20059;-40
2022/01/31 08:46:58;;;;;;;62.17;6.72;;;;;;;6.37;77.71;100909.06;5047546;28;20025;-41
2022/01/31 08:49:23;;;;;;;66.43;7.80;;;;;;;6.40;76.52;100928.44;5044648;28;20087;-40
2022/01/31 08:51:49;;;;;;;63.95;5.70;;;;;;;6.40;76.82;100915.94;5046013;28;20033;-41
2022/01/31 08:54:15;;;;;;;59.42;7.72;;;;;;;6.40;77.11;100913.25;5048288;28;20021;-41
2022/01/31 08:56:44;;;;;;;65.38;6.32;;;;;;;6.45;77.40;100915.44;5047913;28;20048;-41
2022/01/31 08:59:12;;;;;;;69.22;5.80;;;;;;;6.41;77.95;100930.97;5047120;28;20029;-40
2022/01/31 09:01:38;;;;;;;81.80;6.70;;;;;;;6.40;78.67;100947.13;5046941;28;20025;-41
2022/01/31 09:04:05;;;;;;;80.75;7.55;;;;;;;6.41;77.75;100930.13;5048261;28;20481;-41
2022/01/31 09:06:32;;;;;;;79.00;8.35;;;;;;;6.42;76.65;100948.66;5047932;28;20040;-42
2022/01/31 09:08:59;;;;;;;87.60;8.95;;;;;;;6.45;76.96;100960.91;5047007;28;20481;-42
2022/01/31 09:11:25;;;;;;;70.28;6.75;;;;;;;6.48;74.84;100947.25;5046650;28;20026;-41
2022/01/31 09:13:50;;;;;;;67.80;6.05;;;;;;;6.53;74.74;100955.63;5047042;28;20060;-40
2022/01/31 09:16:16;;;;;;;79.65;8.45;;;;;;;6.57;73.38;100951.66;5047166;28;20056;-41
2022/01/31 09:18:41;;;;;;;64.10;6.15;;;;;;;6.58;72.79;100951.53;5063969;28;20093;-40
2022/01/31 09:21:07;;;;;;;74.22;8.35;;;;;;;6.60;72.66;100940.66;5050334;28;20021;-40
2022/01/31 09:23:32;;;;;;;64.82;6.50;;;;;;;6.66;71.06;100960.59;5046683;28;20021;-40
2022/01/31 09:25:58;;;;;;;72.28;7.95;;;;;;;6.70;70.62;100981.53;5048040;28;20485;-41
2022/01/31 09:28:24;;;;;;;74.30;6.63;;;;;;;6.70;69.52;100973.50;5035729;28;20030;-41
2022/01/31 09:30:52;;;;;;;83.22;7.50;;;;;;;6.74;68.71;100953.50;5034367;28;20052;-40
2022/01/31 09:33:18;;;;;;;65.03;7.28;;;;;;;6.82;69.27;100972.28;5030138;28;20119;-42
2022/01/31 09:35:43;;;;;;;79.82;7.55;;;;;;;6.96;68.37;100989.63;5026147;28;20069;-42
2022/01/31 09:38:12;;;;;;;82.13;9.05;;;;;;;7.02;68.92;100988.16;5033716;28;20021;-42
2022/01/31 09:40:38;;;;;;;65.05;7.20;;;;;;;7.04;67.62;101002.22;5037672;28;20371;-42
2022/01/31 09:51:05;;;;;;;77.00;6.85;;;;;;;7.11;65.63;101007.78;5042767;28;20378;-43
2022/01/31 09:53:32;;;;;;;72.50;7.35;;;;;;;7.01;69.13;101013.25;5033856;28;20025;-42
2022/01/31 09:55:57;;;;;;;78.47;8.23;;;;;;;6.89;70.17;101027.84;5034224;28;20414;-42
2022/01/31 09:58:26;;;;;;;67.90;7.43;;;;;;;6.81;70.64;101034.78;5033906;28;20017;-44
2022/01/31 10:01:25;;;;;;;63.17;6.40;;;;;;;6.74;70.49;101038.22;5033669;28;20033;-42
2022/01/31 10:04:09;;;;;;;65.13;6.00;;;;;;;6.65;71.03;101050.69;5009318;28;20085;-41
2022/01/31 10:06:36;;;;;;;81.93;7.55;;;;;;;6.57;73.13;101047.94;5033696;28;20469;-41
2022/01/31 10:09:09;;;;;;;89.13;9.38;;;;;;;6.48;74.27;101078.25;5033772;28;20025;-42
2022/01/31 10:11:53;;;;;;;86.28;8.35;;;;;;;6.54;73.87;101072.31;5033917;28;20037;-42
2022/01/31 10:17:32;;;;;;;87.57;10.30;;;;;;;6.65;72.60;101093.47;5033615;28;20059;-41
2022/01/31 10:20:04;;;;;;;85.70;8.50;;;;;;;6.65;71.66;101098.81;5032405;28;20033;-41
2022/01/31 10:22:32;;;;;;;84.90;7.93;;;;;;;6.56;71.51;101102.41;5033721;28;20077;-42
2022/01/31 10:24:58;;;;;;;;;;;;;;;6.62;71.20;101120.53;5034799;28;20120;-43
2022/01/31 10:27:27;;;;;;;69.47;8.70;;;;;;;6.62;71.61;101100.97;5033439;28;19967;-42
2022/01/31 10:29:54;;;;;;;75.38;7.80;;;;;;;6.62;70.73;101119.69;5013866;28;20125;-42
2022/01/31 10:32:28;;;;;;;73.72;9.07;;;;;;;6.59;69.77;101132.38;5024761;28;20088;-42
2022/01/31 10:35:02;;;;;;;90.03;9.90;;;;;;;6.62;70.36;101109.84;5034013;28;20091;-41
2022/01/31 10:37:30;;;;;;;74.10;7.55;;;;;;;6.54;71.18;101125.78;5033461;28;20033;-42
2022/01/31 10:51:58;;;;;;;92.40;10.52;;;;;;;6.65;71.11;101124.75;5033087;28;20048;-40
2022/01/31 10:54:03;;;;;;;68.60;7.32;;;;;;;6.67;71.53;101118.25;5035737;28;20457;-40
2022/01/31 10:56:36;;;;;;;82.40;9.02;;;;;;;6.71;69.37;101150.88;5034491;28;20397;-41
2022/01/31 10:59:11;;;;;;;78.60;8.73;;;;;;;6.70;69.28;101125.97;5031114;28;20028;-40
2022/01/31 11:01:40;;;;;;;81.07;8.50;;;;;;;6.71;68.64;101129.47;5029196;28;20026;-41
2022/01/31 11:04:10;;;;;;;84.85;8.77;;;;;;;6.68;69.66;101135.97;5032110;28;20037;-41
2022/01/31 11:06:36;;;;;;;82.25;8.57;;;;;;;6.73;69.44;101165.78;5032638;28;20057;-40
2022/01/31 11:09:04;;;;;;;85.75;7.97;;;;;;;6.69;68.66;101143.03;5032270;28;20056;-39
2022/01/31 11:11:31;;;;;;;70.45;6.82;;;;;;;6.68;68.02;101144.00;5032761;28;20022;-40
2022/01/31 11:13:57;;;;;;;69.32;8.10;;;;;;;6.64;69.64;101157.84;5032454;28;20041;-40
2022/01/31 11:16:23;;;;;;;83.82;8.05;;;;;;;6.48;72.43;101155.81;5031677;28;20053;-40
2022/01/31 11:18:49;;;;;;;88.60;7.18;;;;;;;6.30;73.37;101182.47;5031826;28;20116;-40
2022/01/31 11:21:15;;;;;;;75.82;7.22;;;;;;;6.15;75.78;101179.38;5030254;28;20049;-41
2022/01/31 11:23:43;;;;;;;68.22;7.97;;;;;;;6.02;76.84;101160.16;5030632;28;20037;-41
2022/01/31 11:26:11;;;;;;;94.72;8.50;;;;;;;5.91;78.65;101199.38;5031888;28;20029;-40
2022/01/31 11:28:39;;;;;;;92.90;9.65;;;;;;;5.75;79.90;101174.25;5036314;28;20025;-40
2022/01/31 11:31:05;;;;;;;91.70;8.60;;;;;;;5.83;79.61;101188.56;5039556;28;20048;-40
2022/01/31 11:33:31;;;;;;;98.72;8.20;;;;;;;5.71;80.21;101200.38;5031700;28;20033;-40
2022/01/31 11:35:57;;;;;;;90.10;8.88;;;;;;;5.65;80.59;101175.09;5032266;28;20374;-39
2022/01/31 11:38:22;;;;;;;118.43;9.18;;;;;;;5.61;80.94;101203.06;5032886;28;20056;-38
2022/01/31 11:40:48;;;;;;;101.60;9.85;;;;;;;5.59;82.23;101198.84;5033467;28;20397;-39
2022/01/31 11:43:15;;;;;;;89.20;9.70;;;;;;;5.53;81.84;101199.41;5030391;28;20030;-39
2022/01/31 11:45:42;;;;;;;83.28;9.15;;;;;;;5.45;81.80;101200.97;5032039;28;20064;-39
2022/01/31 11:48:18;;;;;;;84.15;8.40;;;;;;;5.47;81.79;101215.00;5029793;28;20025;-40